Time;durP1;ratioP1;P1;durP2;ratioP2;P2;SDS_P1;SDS_P2;PMS_P1;PMS_P2;Temp;Humidity;BMP_temperature;BMP_pressure;BME280_temperature;BME280_humidity;BME280_pressure;Samples;Min_cycle;Max_cycle;Signal;HPM_P1;HPM_P2
2023/03/13 00:00:57;;;;;;;;;;;9.60;99.90;;;;;;8368675;28;19959;-71
2023/03/13 00:04:58;;;;;;;;;;;9.60;99.90;;;;;;8379374;28;19932;-71
2023/03/13 00:09:00;;;;;;;;;;;9.60;99.90;;;;;;8377760;28;19924;-71
2023/03/13 00:13:03;;;;;;;;;;;9.70;99.90;;;;;;8385072;28;19939;-72
2023/03/13 00:17:05;;;;;;;;;;;9.70;99.90;;;;;;8388267;28;20395;-71
2023/03/13 00:21:07;;;;;;;;;;;9.70;99.90;;;;;;8389379;28;19977;-71
2023/03/13 00:25:09;;;;;;;;;;;9.80;99.90;;;;;;8385787;28;19928;-71
2023/03/13 00:29:11;;;;;;;;;;;9.80;99.90;;;;;;8371436;28;20188;-71
2023/03/13 00:33:12;;;;;;;;;;;9.70;99.90;;;;;;8379029;28;19924;-71
2023/03/13 00:37:14;;;;;;;;;;;9.70;99.90;;;;;;8391088;28;19964;-71
2023/03/13 00:41:17;;;;;;;;;;;9.60;99.90;;;;;;8383727;28;19928;-72
2023/03/13 00:45:19;;;;;;;;;;;9.60;99.90;;;;;;8379823;28;19951;-71
2023/03/13 00:49:20;;;;;;;;;;;9.60;99.90;;;;;;8395568;28;19931;-72
2023/03/13 00:53:22;;;;;;;;;;;9.50;99.90;;;;;;8390794;28;20016;-71
2023/03/13 00:57:24;;;;;;;;;;;9.50;99.90;;;;;;8390619;28;19924;-71
2023/03/13 01:01:27;;;;;;;;;;;9.50;99.90;;;;;;8381685;28;19968;-71
2023/03/13 01:05:29;;;;;;;;;;;9.50;99.90;;;;;;8383808;28;19975;-71
2023/03/13 01:09:30;;;;;;;;;;;9.50;99.90;;;;;;8380752;28;19969;-71
2023/03/13 01:13:32;;;;;;;;;;;9.50;99.90;;;;;;8382916;28;19975;-71
2023/03/13 01:17:34;;;;;;;;;;;9.50;99.90;;;;;;8389449;28;20293;-71
2023/03/13 01:21:36;;;;;;;;;;;9.50;99.90;;;;;;8379239;28;19929;-71
2023/03/13 01:25:38;;;;;;;;;;;9.50;99.90;;;;;;8378739;28;19925;-71
2023/03/13 01:29:40;;;;;;;;;;;9.50;99.90;;;;;;8380248;28;19924;-72
2023/03/13 01:33:42;;;;;;;;;;;9.50;99.90;;;;;;8379139;28;19976;-72
2023/03/13 01:37:43;;;;;;;;;;;9.60;99.90;;;;;;8380894;28;19929;-71
2023/03/13 01:41:45;;;;;;;;;;;9.60;99.90;;;;;;8372760;28;20015;-71
2023/03/13 01:45:53;;;;;;;;;;;9.70;99.90;;;;;;8388103;28;20291;-71
2023/03/13 01:49:55;;;;;;;;;;;9.70;99.90;;;;;;8386447;28;20037;-71
2023/03/13 01:53:59;;;;;;;;;;;9.80;99.90;;;;;;8398668;28;19950;-71
2023/03/13 01:58:01;;;;;;;;;;;9.80;99.90;;;;;;8391210;28;20008;-71
2023/03/13 02:02:03;;;;;;;;;;;9.80;99.90;;;;;;8393347;28;19929;-71
2023/03/13 02:06:05;;;;;;;;;;;9.90;99.90;;;;;;8373185;28;19963;-71
2023/03/13 02:10:10;;;;;;;;;;;9.90;99.90;;;;;;8385559;28;20427;-71
2023/03/13 02:14:12;;;;;;;;;;;10.00;99.90;;;;;;8381403;28;20404;-71
2023/03/13 02:18:14;;;;;;;;;;;10.00;99.90;;;;;;8387267;28;19931;-71
2023/03/13 02:22:19;;;;;;;;;;;10.10;99.90;;;;;;8389440;28;19933;-71
2023/03/13 02:26:20;;;;;;;;;;;10.20;99.90;;;;;;8389582;28;20007;-71
2023/03/13 02:30:22;;;;;;;;;;;10.20;99.90;;;;;;8380935;28;19936;-71
2023/03/13 02:34:26;;;;;;;;;;;10.30;99.90;;;;;;8380403;28;19928;-71
2023/03/13 02:38:29;;;;;;;;;;;10.30;99.90;;;;;;8384450;28;20279;-71
2023/03/13 02:42:31;;;;;;;;;;;10.40;99.90;;;;;;8384349;28;19931;-71
2023/03/13 02:46:42;;;;;;;;;;;10.50;99.90;;;;;;8385843;28;19924;-71
2023/03/13 02:50:44;;;;;;;;;;;10.50;99.90;;;;;;8383070;28;19942;-71
2023/03/13 02:54:46;;;;;;;;;;;10.60;99.90;;;;;;8374409;28;20303;-70
2023/03/13 02:58:48;;;;;;;;;;;10.70;99.90;;;;;;8381028;28;19931;-71
2023/03/13 03:02:52;;;;;;;;;;;10.80;99.90;;;;;;8386418;28;19924;-71
2023/03/13 03:06:54;;;;;;;;;;;10.80;99.90;;;;;;8380754;28;19966;-71
2023/03/13 03:10:56;;;;;;;;;;;10.90;99.90;;;;;;8384437;28;19929;-71
2023/03/13 03:14:57;;;;;;;;;;;11.00;99.90;;;;;;8389897;28;19925;-71
2023/03/13 03:18:59;;;;;;;;;;;11.10;99.90;;;;;;8382272;28;20230;-71
2023/03/13 03:23:00;;;;;;;;;;;11.10;99.90;;;;;;8389529;28;19924;-71
2023/03/13 03:27:02;;;;;;;;;;;11.20;99.90;;;;;;8376982;28;19968;-71
2023/03/13 03:31:04;;;;;;;;;;;11.20;99.90;;;;;;8384176;28;19925;-71
2023/03/13 03:35:07;;;;;;;;;;;11.30;99.90;;;;;;8384572;28;20023;-71
2023/03/13 03:39:08;;;;;;;;;;;11.30;99.90;;;;;;8381033;28;20027;-71
2023/03/13 03:43:10;;;;;;;;;;;11.40;99.90;;;;;;8363876;28;19972;-72
2023/03/13 03:47:12;;;;;;;;;;;11.50;99.90;;;;;;8383223;28;19972;-71
2023/03/13 03:51:13;;;;;;;;;;;11.60;99.90;;;;;;8371959;28;19925;-71
2023/03/13 03:55:15;;;;;;;;;;;11.60;99.90;;;;;;8391976;28;19925;-71
2023/03/13 03:59:17;;;;;;;;;;;11.60;99.90;;;;;;8388055;28;19952;-71
2023/03/13 04:03:18;;;;;;;;;;;11.70;99.90;;;;;;8383680;28;20018;-71
2023/03/13 04:07:20;;;;;;;;;;;11.70;99.90;;;;;;8380071;28;19932;-71
2023/03/13 04:11:21;;;;;;;;;;;11.80;99.90;;;;;;8359781;28;20361;-71
2023/03/13 04:15:23;;;;;;;;;;;11.80;99.90;;;;;;8365390;28;20017;-71
2023/03/13 04:19:25;;;;;;;;;;;11.90;99.90;;;;;;8382397;28;20399;-71
2023/03/13 04:23:26;;;;;;;;;;;11.90;99.90;;;;;;8362289;28;19928;-71
2023/03/13 04:27:28;;;;;;;;;;;11.90;99.90;;;;;;8382326;28;20395;-71
2023/03/13 04:31:29;;;;;;;;;;;12.00;99.90;;;;;;8382159;28;20393;-71
2023/03/13 04:35:31;;;;;;;;;;;12.00;99.90;;;;;;8378216;28;20396;-71
2023/03/13 04:39:33;;;;;;;;;;;12.00;99.90;;;;;;8381267;28;19924;-71
2023/03/13 04:43:35;;;;;;;;;;;12.00;99.90;;;;;;8380438;28;19935;-71
2023/03/13 04:47:36;;;;;;;;;;;12.10;99.90;;;;;;8371539;28;19940;-71
2023/03/13 04:51:38;;;;;;;;;;;12.10;99.90;;;;;;8377605;28;19990;-71
2023/03/13 04:55:40;;;;;;;;;;;12.20;99.90;;;;;;8373060;28;19932;-71
2023/03/13 04:59:42;;;;;;;;;;;12.30;99.90;;;;;;8386252;28;19958;-70
2023/03/13 05:03:43;;;;;;;;;;;12.30;99.90;;;;;;8366155;28;19925;-71
2023/03/13 05:07:45;;;;;;;;;;;12.40;99.90;;;;;;8377288;28;19925;-70
2023/03/13 05:11:47;;;;;;;;;;;12.40;99.90;;;;;;8358020;28;19990;-71
2023/03/13 05:15:48;;;;;;;;;;;12.50;99.90;;;;;;8386087;28;19931;-71
2023/03/13 05:19:50;;;;;;;;;;;12.50;99.90;;;;;;8392517;28;19935;-71
2023/03/13 05:23:52;;;;;;;;;;;12.50;99.90;;;;;;8385667;28;19956;-71
2023/03/13 05:27:53;;;;;;;;;;;12.60;99.90;;;;;;8384528;28;19932;-70
2023/03/13 05:31:55;;;;;;;;;;;12.70;99.90;;;;;;8368693;28;19960;-71
2023/03/13 05:35:57;;;;;;;;;;;12.80;99.90;;;;;;8371803;28;19944;-71
2023/03/13 05:39:58;;;;;;;;;;;12.80;99.90;;;;;;8384295;28;20011;-71
2023/03/13 05:44:00;;;;;;;;;;;12.80;99.90;;;;;;8390890;28;20002;-71
2023/03/13 05:48:02;;;;;;;;;;;12.90;99.90;;;;;;8390159;28;19931;-71
2023/03/13 05:52:03;;;;;;;;;;;12.80;99.90;;;;;;8392998;28;19929;-71
2023/03/13 05:56:05;;;;;;;;;;;12.90;99.90;;;;;;8396008;28;19928;-71
2023/03/13 06:00:07;;;;;;;;;;;12.90;99.90;;;;;;8367645;28;19928;-71
2023/03/13 06:04:09;;;;;;;;;;;13.00;99.90;;;;;;8386805;28;19931;-71
2023/03/13 06:08:11;;;;;;;;;;;13.00;99.90;;;;;;8384901;28;19929;-71
2023/03/13 06:12:12;;;;;;;;;;;13.00;99.90;;;;;;8389748;28;19943;-71
2023/03/13 06:16:14;;;;;;;;;;;13.00;99.90;;;;;;8393089;28;19924;-71
2023/03/13 06:20:16;;;;;;;;;;;13.00;99.90;;;;;;8367594;28;19925;-71
2023/03/13 06:24:17;;;;;;;;;;;13.10;99.90;;;;;;8392365;28;19925;-71
2023/03/13 06:28:19;;;;;;;;;;;13.10;99.90;;;;;;8386019;28;20288;-71
2023/03/13 06:37:24;;;;;;;;;;;13.20;99.90;;;;;;8388853;28;20035;-71
2023/03/13 06:41:26;;;;;;;;;;;13.20;99.90;;;;;;8383306;28;19931;-71
2023/03/13 06:45:28;;;;;;;;;;;13.20;99.90;;;;;;8390755;28;19924;-71
2023/03/13 06:49:29;;;;;;;;;;;13.20;99.90;;;;;;8380391;28;20376;-71
2023/03/13 06:53:31;;;;;;;;;;;13.20;99.90;;;;;;8387539;28;19929;-71
2023/03/13 06:57:33;;;;;;;;;;;13.30;99.90;;;;;;8393123;28;19924;-71
2023/03/13 07:01:34;;;;;;;;;;;13.30;99.90;;;;;;8381741;28;19928;-71
2023/03/13 07:05:36;;;;;;;;;;;13.30;99.90;;;;;;8390378;28;19932;-71
2023/03/13 07:09:38;;;;;;;;;;;13.30;99.90;;;;;;8390691;28;19950;-71
2023/03/13 07:13:40;;;;;;;;;;;13.30;99.90;;;;;;8392933;28;20418;-72
2023/03/13 07:17:41;;;;;;;;;;;13.30;99.90;;;;;;8385232;28;19983;-72
2023/03/13 07:21:43;;;;;;;;;;;13.10;99.90;;;;;;8384795;28;19924;-71
2023/03/13 07:25:51;;;;;;;;;;;13.00;99.90;;;;;;8387679;28;20007;-71
2023/03/13 07:29:52;;;;;;;;;;;12.90;99.90;;;;;;8389683;28;19924;-71
2023/03/13 07:33:55;;;;;;;;;;;12.80;99.90;;;;;;8385584;28;20376;-72
2023/03/13 07:37:57;;;;;;;;;;;12.80;99.90;;;;;;8391117;28;20398;-71
2023/03/13 07:41:58;;;;;;;;;;;12.70;99.90;;;;;;8379083;28;19935;-71
2023/03/13 07:46:04;;;;;;;;;;;12.50;99.90;;;;;;8390700;28;19940;-71
2023/03/13 07:50:07;;;;;;;;;;;12.40;99.90;;;;;;8387140;28;20351;-71
2023/03/13 07:54:08;;;;;;;;;;;12.40;99.90;;;;;;8392675;28;19931;-72
2023/03/13 07:58:10;;;;;;;;;;;12.40;99.90;;;;;;8383932;28;20300;-72
2023/03/13 08:02:15;;;;;;;;;;;12.40;99.90;;;;;;8381879;28;20352;-71
2023/03/13 08:06:18;;;;;;;;;;;12.50;99.90;;;;;;8381485;28;19924;-72
2023/03/13 08:10:20;;;;;;;;;;;12.50;99.90;;;;;;8385269;28;19925;-71
2023/03/13 08:14:22;;;;;;;;;;;12.40;99.90;;;;;;8390050;28;20383;-71
2023/03/13 08:18:23;;;;;;;;;;;12.40;99.90;;;;;;8386071;28;19928;-71
2023/03/13 08:22:25;;;;;;;;;;;12.40;99.90;;;;;;8387909;28;19932;-72
2023/03/13 08:26:28;;;;;;;;;;;12.40;99.90;;;;;;8381362;28;20031;-72
2023/03/13 08:30:30;;;;;;;;;;;12.40;99.90;;;;;;8382715;28;19935;-72
2023/03/13 08:34:33;;;;;;;;;;;12.40;99.90;;;;;;8380490;28;20540;-71
2023/03/13 08:38:36;;;;;;;;;;;12.40;99.90;;;;;;8385511;28;19933;-71
2023/03/13 08:42:39;;;;;;;;;;;12.40;99.90;;;;;;8376554;28;19972;-71
2023/03/13 08:46:41;;;;;;;;;;;12.50;99.90;;;;;;8385117;28;19968;-71
2023/03/13 08:50:42;;;;;;;;;;;12.60;99.90;;;;;;8364675;28;19951;-71
2023/03/13 08:54:44;;;;;;;;;;;12.70;99.90;;;;;;8394353;28;19925;-71
2023/03/13 08:58:49;;;;;;;;;;;12.80;99.90;;;;;;8377245;28;19932;-71
2023/03/13 09:02:51;;;;;;;;;;;12.90;99.90;;;;;;8388097;28;19931;-71
2023/03/13 09:06:53;;;;;;;;;;;12.90;99.90;;;;;;8398370;28;19929;-71
2023/03/13 09:10:58;;;;;;;;;;;13.00;99.90;;;;;;8384914;28;19994;-71
2023/03/13 09:14:59;;;;;;;;;;;13.10;99.90;;;;;;8387174;28;20395;-71
2023/03/13 09:19:01;;;;;;;;;;;13.20;99.90;;;;;;8387270;28;20051;-71
2023/03/13 09:23:02;;;;;;;;;;;13.30;99.90;;;;;;8373685;28;19929;-71
2023/03/13 09:27:04;;;;;;;;;;;13.70;99.90;;;;;;8385198;28;20355;-71
2023/03/13 09:31:13;;;;;;;;;;;14.00;99.90;;;;;;8386814;28;19925;-71
2023/03/13 09:35:15;;;;;;;;;;;14.20;99.90;;;;;;8392665;28;19970;-71
2023/03/13 09:39:17;;;;;;;;;;;14.40;99.90;;;;;;8383755;28;19936;-71
2023/03/13 09:43:25;;;;;;;;;;;14.40;99.90;;;;;;8383342;28;19931;-71
2023/03/13 09:47:37;;;;;;;;;;;14.40;99.90;;;;;;8388161;28;19928;-71
2023/03/13 09:51:41;;;;;;;;;;;14.50;99.90;;;;;;8391053;28;20288;-71
2023/03/13 09:55:44;;;;;;;;;;;14.60;99.90;;;;;;8397154;28;19952;-71
2023/03/13 09:59:52;;;;;;;;;;;14.60;99.90;;;;;;8389209;28;20373;-71
2023/03/13 10:04:12;;;;;;;;;;;14.60;99.90;;;;;;8387459;28;20295;-72
2023/03/13 10:08:18;;;;;;;;;;;14.80;99.90;;;;;;8385750;28;19990;-71
2023/03/13 10:12:23;;;;;;;;;;;15.00;99.90;;;;;;8369693;28;20439;-72
2023/03/13 10:16:29;;;;;;;;;;;15.30;99.90;;;;;;8391952;28;19929;-72
2023/03/13 10:20:33;;;;;;;;;;;15.70;99.90;;;;;;8386763;28;20306;-72
2023/03/13 10:24:41;;;;;;;;;;;15.80;99.90;;;;;;8391718;28;19932;-72
2023/03/13 10:28:43;;;;;;;;;;;15.70;99.90;;;;;;8381287;28;19929;-71
2023/03/13 10:32:45;;;;;;;;;;;15.50;99.90;;;;;;8378930;28;19931;-71
2023/03/13 10:36:48;;;;;;;;;;;15.50;99.90;;;;;;8388582;28;19924;-71
2023/03/13 10:40:57;;;;;;;;;;;15.80;99.90;;;;;;8366678;28;19935;-72
2023/03/13 10:45:00;;;;;;;;;;;15.60;99.90;;;;;;8381381;28;19947;-72
2023/03/13 10:49:03;;;;;;;;;;;15.70;99.90;;;;;;8367021;28;19931;-71
2023/03/13 10:53:23;;;;;;;;;;;15.90;99.90;;;;;;8368309;28;20253;-72
2023/03/13 10:57:29;;;;;;;;;;;16.10;99.90;;;;;;8371377;28;19972;-71
2023/03/13 11:01:41;;;;;;;;;;;16.50;99.90;;;;;;8372364;28;20379;-72
2023/03/13 11:05:43;;;;;;;;;;;16.70;99.90;;;;;;8383966;28;19932;-71
2023/03/13 11:09:58;;;;;;;;;;;17.10;99.90;;;;;;8368265;28;19970;-72
2023/03/13 11:14:07;;;;;;;;;;;17.40;99.90;;;;;;8383118;28;20380;-72
2023/03/13 11:18:14;;;;;;;;;;;17.50;99.90;;;;;;8371277;28;20383;-72
2023/03/13 11:22:20;;;;;;;;;;;17.60;99.90;;;;;;8385320;28;19929;-71
2023/03/13 11:26:29;;;;;;;;;;;17.50;99.90;;;;;;8374695;28;19968;-72
2023/03/13 11:31:00;;;;;;;;;;;17.80;99.90;;;;;;8392509;28;19960;-71
2023/03/13 11:35:05;;;;;;;;;;;18.10;99.90;;;;;;8352708;28;19924;-71
2023/03/13 11:39:07;;;;;;;;;;;18.10;99.90;;;;;;8375053;28;19928;-72
2023/03/13 11:43:17;;;;;;;;;;;17.70;99.90;;;;;;8356402;28;20026;-72
2023/03/13 11:47:26;;;;;;;;;;;17.40;99.90;;;;;;8357087;28;20360;-72
2023/03/13 11:51:42;;;;;;;;;;;17.50;99.90;;;;;;8357325;28;19925;-71
2023/03/13 11:55:44;;;;;;;;;;;17.60;99.90;;;;;;8360278;28;19951;-71
2023/03/13 11:59:56;;;;;;;;;;;17.50;99.90;;;;;;8354897;28;19925;-71
2023/03/13 12:03:58;;;;;;;;;;;17.60;99.90;;;;;;8357859;28;20420;-72
2023/03/13 12:08:06;;;;;;;;;;;17.40;99.90;;;;;;8357124;28;20023;-72
2023/03/13 12:12:19;;;;;;;;;;;17.50;99.90;;;;;;8357952;28;19925;-72
2023/03/13 12:16:24;;;;;;;;;;;17.70;99.90;;;;;;8381020;28;19983;-72
2023/03/13 12:20:48;;;;;;;;;;;17.80;99.90;;;;;;8360728;28;19967;-72
2023/03/13 12:24:53;;;;;;;;;;;17.90;99.90;;;;;;8363124;28;20364;-72
2023/03/13 12:29:14;;;;;;;;;;;17.90;99.90;;;;;;8362107;28;20266;-72
2023/03/13 12:33:29;;;;;;;;;;;17.80;99.90;;;;;;8354973;28;19932;-72
2023/03/13 12:37:50;;;;;;;;;;;18.00;99.90;;;;;;8358843;28;19935;-72
2023/03/13 12:42:06;;;;;;;;;;;18.20;99.90;;;;;;8363173;28;19931;-71
2023/03/13 12:46:26;;;;;;;;;;;17.90;99.90;;;;;;8370902;28;19924;-71
2023/03/13 12:50:31;;;;;;;;;;;17.40;99.90;;;;;;8356440;28;20058;-72
2023/03/13 12:54:36;;;;;;;;;;;17.60;99.90;;;;;;8359147;28;19924;-72
2023/03/13 12:58:40;;;;;;;;;;;18.00;99.90;;;;;;8353553;28;20027;-72
2023/03/13 13:02:42;;;;;;;;;;;18.10;99.90;;;;;;8350480;28;19968;-72
2023/03/13 13:06:55;;;;;;;;;;;18.10;99.90;;;;;;8353021;28;20372;-72
2023/03/13 13:11:17;;;;;;;;;;;18.00;99.90;;;;;;8360410;28;19928;-72
2023/03/13 13:15:24;;;;;;;;;;;17.90;99.90;;;;;;8360575;28;19924;-72
2023/03/13 13:19:26;;;;;;;;;;;17.80;99.90;;;;;;8369032;28;20370;-72
2023/03/13 13:23:32;;;;;;;;;;;17.80;99.90;;;;;;8355082;28;20396;-73
2023/03/13 13:27:34;;;;;;;;;;;17.40;99.90;;;;;;8363909;28;19935;-72
2023/03/13 13:31:45;;;;;;;;;;;17.30;99.90;;;;;;8364095;28;19925;-71
2023/03/13 13:36:06;;;;;;;;;;;17.40;99.90;;;;;;8356979;28;19925;-72
2023/03/13 13:40:14;;;;;;;;;;;17.20;99.90;;;;;;8357744;28;19932;-72
2023/03/13 13:44:24;;;;;;;;;;;17.20;99.90;;;;;;8360303;28;20319;-72
2023/03/13 13:48:27;;;;;;;;;;;17.10;99.90;;;;;;8370241;28;19924;-72
2023/03/13 13:52:28;;;;;;;;;;;17.30;99.90;;;;;;8377462;28;19968;-72
2023/03/13 13:56:32;;;;;;;;;;;17.40;99.90;;;;;;8361761;28;20163;-72
2023/03/13 14:00:39;;;;;;;;;;;17.40;99.90;;;;;;8377389;28;19932;-72
2023/03/13 14:04:44;;;;;;;;;;;17.30;99.90;;;;;;8361184;28;19967;-72
2023/03/13 14:08:47;;;;;;;;;;;17.20;99.90;;;;;;8363270;28;19925;-72
2023/03/13 14:12:53;;;;;;;;;;;17.10;99.90;;;;;;8366664;28;19925;-72
2023/03/13 14:16:56;;;;;;;;;;;17.00;99.90;;;;;;8345381;28;19978;-72
2023/03/13 14:21:02;;;;;;;;;;;16.90;99.90;;;;;;8368313;28;19925;-72
2023/03/13 14:25:04;;;;;;;;;;;16.90;99.90;;;;;;8344067;28;19964;-72
2023/03/13 14:29:05;;;;;;;;;;;17.20;99.90;;;;;;8361796;28;19935;-72
2023/03/13 14:33:08;;;;;;;;;;;17.80;99.90;;;;;;8344976;28;19925;-72
2023/03/13 14:37:30;;;;;;;;;;;18.50;99.90;;;;;;8357794;28;19932;-72
2023/03/13 14:41:36;;;;;;;;;;;19.10;99.90;;;;;;8359946;28;20011;-72
2023/03/13 14:45:38;;;;;;;;;;;19.60;99.90;;;;;;8374926;28;19925;-73
2023/03/13 14:49:43;;;;;;;;;;;20.00;99.90;;;;;;8356108;28;19929;-72
2023/03/13 14:53:58;;;;;;;;;;;20.30;99.90;;;;;;8359015;28;19928;-72
2023/03/13 14:58:02;;;;;;;;;;;20.20;99.90;;;;;;8337522;28;19964;-72
2023/03/13 15:02:25;;;;;;;;;;;20.00;99.90;;;;;;8375238;28;20100;-70
2023/03/13 15:06:26;;;;;;;;;;;19.70;99.90;;;;;;8356008;28;19924;-72
2023/03/13 15:10:35;;;;;;;;;;;19.40;99.90;;;;;;8352824;28;19932;-72
2023/03/13 15:14:38;;;;;;;;;;;19.30;99.90;;;;;;8356087;28;19982;-72
2023/03/13 15:18:40;;;;;;;;;;;19.30;99.90;;;;;;8358848;28;20424;-72
2023/03/13 15:22:43;;;;;;;;;;;19.10;99.90;;;;;;8356366;28;19929;-72
2023/03/13 15:26:44;;;;;;;;;;;18.90;99.90;;;;;;8356445;28;19939;-72
2023/03/13 15:30:52;;;;;;;;;;;18.90;99.90;;;;;;8365986;28;19982;-72
2023/03/13 15:34:57;;;;;;;;;;;18.90;99.90;;;;;;8363904;28;19939;-72
2023/03/13 15:38:59;;;;;;;;;;;18.80;99.90;;;;;;8365675;28;19924;-72
2023/03/13 15:43:01;;;;;;;;;;;18.80;99.90;;;;;;8361648;28;20373;-72
2023/03/13 15:47:02;;;;;;;;;;;18.60;99.90;;;;;;8358034;28;20388;-72
2023/03/13 15:51:04;;;;;;;;;;;18.60;99.90;;;;;;8361016;28;20154;-72
2023/03/13 15:55:07;;;;;;;;;;;18.50;99.90;;;;;;8363514;28;19968;-72
2023/03/13 15:59:12;;;;;;;;;;;18.40;99.90;;;;;;8355442;28;19960;-72
2023/03/13 16:03:15;;;;;;;;;;;18.50;99.90;;;;;;8340849;28;19936;-72
2023/03/13 16:07:19;;;;;;;;;;;18.30;99.90;;;;;;8360143;28;19972;-72
2023/03/13 16:11:21;;;;;;;;;;;18.20;99.90;;;;;;8363823;28;19928;-72
2023/03/13 16:15:22;;;;;;;;;;;18.00;99.90;;;;;;8342397;28;19924;-72
2023/03/13 16:19:24;;;;;;;;;;;17.80;99.90;;;;;;8366830;28;19928;-72
2023/03/13 16:23:25;;;;;;;;;;;17.70;99.90;;;;;;8361667;28;19964;-72
2023/03/13 16:27:27;;;;;;;;;;;17.70;99.90;;;;;;8361462;28;19935;-72
2023/03/13 16:31:30;;;;;;;;;;;18.10;99.90;;;;;;8356120;28;19933;-72
2023/03/13 16:35:32;;;;;;;;;;;18.20;99.90;;;;;;8357974;28;19924;-73
2023/03/13 16:39:34;;;;;;;;;;;18.40;99.90;;;;;;8358617;28;20006;-73
2023/03/13 16:43:35;;;;;;;;;;;18.50;99.90;;;;;;8356344;28;20435;-72
2023/03/13 16:47:37;;;;;;;;;;;18.50;99.90;;;;;;8361104;28;19929;-73
2023/03/13 16:51:39;;;;;;;;;;;18.30;99.90;;;;;;8375379;28;20233;-73
2023/03/13 16:55:40;;;;;;;;;;;18.00;99.90;;;;;;8362168;28;19925;-72
2023/03/13 16:59:42;;;;;;;;;;;17.80;99.90;;;;;;8359808;28;19928;-72
2023/03/13 17:03:44;;;;;;;;;;;17.40;99.90;;;;;;8374571;28;19976;-72
2023/03/13 17:07:47;;;;;;;;;;;17.10;99.90;;;;;;8359328;28;19933;-72
2023/03/13 17:11:48;;;;;;;;;;;16.80;99.90;;;;;;8359953;28;19924;-72
2023/03/13 17:15:50;;;;;;;;;;;16.60;99.90;;;;;;8345029;28;20393;-72
2023/03/13 17:19:51;;;;;;;;;;;16.40;99.90;;;;;;8366097;28;20015;-72
2023/03/13 17:23:54;;;;;;;;;;;16.00;99.90;;;;;;8362819;28;20020;-72
2023/03/13 17:27:55;;;;;;;;;;;15.70;99.90;;;;;;8368081;28;19924;-72
2023/03/13 17:31:57;;;;;;;;;;;15.50;99.90;;;;;;8361667;28;19939;-72
2023/03/13 17:35:59;;;;;;;;;;;15.30;99.90;;;;;;8374757;28;19925;-73
2023/03/13 17:40:00;;;;;;;;;;;15.10;99.90;;;;;;8347863;28;20172;-72
2023/03/13 17:44:02;;;;;;;;;;;14.90;99.90;;;;;;8378872;28;20426;-73
2023/03/13 17:48:07;;;;;;;;;;;14.80;99.90;;;;;;8354595;28;20047;-73
2023/03/13 17:52:13;;;;;;;;;;;14.70;99.90;;;;;;8364159;28;19930;-72
2023/03/13 17:56:20;;;;;;;;;;;14.60;99.90;;;;;;8361769;28;20031;-72
2023/03/13 18:00:24;;;;;;;;;;;14.50;99.90;;;;;;8362426;28;19947;-72
2023/03/13 18:04:26;;;;;;;;;;;14.40;99.90;;;;;;8357487;28;20421;-72
2023/03/13 18:08:28;;;;;;;;;;;14.30;99.90;;;;;;8360908;28;19933;-72
2023/03/13 18:12:29;;;;;;;;;;;14.20;99.90;;;;;;8362833;28;19931;-72
2023/03/13 18:16:37;;;;;;;;;;;14.10;99.90;;;;;;8362924;28;19964;-72
2023/03/13 18:20:38;;;;;;;;;;;14.00;99.90;;;;;;8360306;28;19932;-72
2023/03/13 18:24:40;;;;;;;;;;;13.90;99.90;;;;;;8364272;28;19956;-72
2023/03/13 18:28:42;;;;;;;;;;;13.80;99.90;;;;;;8358492;28;19975;-72
2023/03/13 18:32:44;;;;;;;;;;;13.80;99.90;;;;;;8363231;28;19972;-72
2023/03/13 18:36:45;;;;;;;;;;;13.60;99.90;;;;;;8362492;28;19932;-72
2023/03/13 18:40:47;;;;;;;;;;;13.50;99.90;;;;;;8362322;28;20015;-72
2023/03/13 18:44:49;;;;;;;;;;;13.40;99.90;;;;;;8362112;28;20384;-72
2023/03/13 18:48:51;;;;;;;;;;;13.30;99.90;;;;;;8364676;28;19932;-72
2023/03/13 18:52:54;;;;;;;;;;;13.20;99.90;;;;;;8362940;28;20368;-72
2023/03/13 18:56:55;;;;;;;;;;;13.10;99.90;;;;;;8364673;28;20308;-72
2023/03/13 19:00:57;;;;;;;;;;;13.00;99.90;;;;;;8368951;28;19931;-72
2023/03/13 19:04:59;;;;;;;;;;;13.00;99.90;;;;;;8377789;28;19931;-72
2023/03/13 19:09:02;;;;;;;;;;;12.90;99.90;;;;;;8365863;28;19925;-72
2023/03/13 19:13:03;;;;;;;;;;;12.80;99.90;;;;;;8363805;28;19929;-72
2023/03/13 19:17:10;;;;;;;;;;;12.80;99.90;;;;;;8367188;28;20317;-72
2023/03/13 19:21:16;;;;;;;;;;;12.70;99.90;;;;;;8364223;28;19929;-72
2023/03/13 19:25:19;;;;;;;;;;;12.60;99.90;;;;;;8359903;28;19925;-72
2023/03/13 19:29:22;;;;;;;;;;;12.50;99.90;;;;;;8364051;28;20430;-72
2023/03/13 19:33:23;;;;;;;;;;;12.50;99.90;;;;;;8361545;28;19933;-72
2023/03/13 19:37:25;;;;;;;;;;;12.40;99.90;;;;;;8366517;28;19931;-72
2023/03/13 19:41:27;;;;;;;;;;;12.30;99.90;;;;;;8374890;28;20280;-72
2023/03/13 19:45:29;;;;;;;;;;;12.30;99.90;;;;;;8362182;28;19932;-72
2023/03/13 19:49:31;;;;;;;;;;;12.30;99.90;;;;;;8363562;28;19936;-72
2023/03/13 19:53:33;;;;;;;;;;;12.30;99.90;;;;;;8358648;28;19929;-72
2023/03/13 19:57:35;;;;;;;;;;;12.20;99.90;;;;;;8361473;28;19971;-72
2023/03/13 20:01:37;;;;;;;;;;;12.10;99.90;;;;;;8356777;28;20393;-72
2023/03/13 20:05:39;;;;;;;;;;;12.10;99.90;;;;;;8353671;28;20369;-72
2023/03/13 20:09:40;;;;;;;;;;;12.00;99.90;;;;;;8358060;28;19956;-72
2023/03/13 20:13:42;;;;;;;;;;;12.00;99.90;;;;;;8362718;28;19931;-73
2023/03/13 20:17:44;;;;;;;;;;;11.90;99.90;;;;;;8360543;28;19931;-72
2023/03/13 20:21:45;;;;;;;;;;;11.80;99.90;;;;;;8361702;28;19963;-72
2023/03/13 20:25:47;;;;;;;;;;;11.70;99.90;;;;;;8366051;28;19924;-72
2023/03/13 20:29:49;;;;;;;;;;;11.70;99.90;;;;;;8358825;28;19925;-73
2023/03/13 20:33:50;;;;;;;;;;;11.60;99.90;;;;;;8359385;28;19933;-72
2023/03/13 20:37:53;;;;;;;;;;;11.60;99.90;;;;;;8341867;28;20163;-72
2023/03/13 20:41:55;;;;;;;;;;;11.60;99.90;;;;;;8356451;28;19968;-72
2023/03/13 20:45:58;;;;;;;;;;;11.50;99.90;;;;;;8359407;28;19925;-72
2023/03/13 20:50:02;;;;;;;;;;;11.50;99.90;;;;;;8364864;28;19925;-72
2023/03/13 20:54:03;;;;;;;;;;;11.40;99.90;;;;;;8372099;28;19924;-72
2023/03/13 20:58:05;;;;;;;;;;;11.40;99.90;;;;;;8367665;28;19983;-72
2023/03/13 21:02:08;;;;;;;;;;;11.50;99.90;;;;;;8367227;28;19986;-72
2023/03/13 21:06:11;;;;;;;;;;;11.50;99.90;;;;;;8378317;28;19991;-72
2023/03/13 21:10:13;;;;;;;;;;;11.50;99.90;;;;;;8375386;28;19967;-72
2023/03/13 21:14:15;;;;;;;;;;;11.50;99.90;;;;;;8372531;28;19931;-72
2023/03/13 21:18:16;;;;;;;;;;;11.50;99.90;;;;;;8370684;28;19925;-72
2023/03/13 21:22:18;;;;;;;;;;;11.60;99.90;;;;;;8387993;28;19933;-72
2023/03/13 21:26:19;;;;;;;;;;;11.60;99.90;;;;;;8368325;28;20012;-72
2023/03/13 21:30:21;;;;;;;;;;;11.60;99.90;;;;;;8385176;28;20365;-72
2023/03/13 21:34:23;;;;;;;;;;;11.70;99.90;;;;;;8380065;28;19936;-72
2023/03/13 21:38:24;;;;;;;;;;;11.70;99.90;;;;;;8371281;28;19967;-72
2023/03/13 21:42:26;;;;;;;;;;;11.80;99.90;;;;;;8365036;28;19967;-72
2023/03/13 21:46:32;;;;;;;;;;;11.80;99.90;;;;;;8364832;28;19972;-73
2023/03/13 21:50:33;;;;;;;;;;;11.80;99.90;;;;;;8367664;28;19924;-72
2023/03/13 21:54:35;;;;;;;;;;;11.80;99.90;;;;;;8369060;28;20407;-72
2023/03/13 21:58:37;;;;;;;;;;;11.90;99.90;;;;;;8373589;28;19929;-72
2023/03/13 22:02:39;;;;;;;;;;;11.90;99.90;;;;;;8354830;28;19931;-72
2023/03/13 22:06:40;;;;;;;;;;;11.90;99.90;;;;;;8385476;28;20406;-72
2023/03/13 22:10:53;;;;;;;;;;;11.90;99.90;;;;;;8392538;28;19924;-72
2023/03/13 22:14:55;;;;;;;;;;;11.90;99.90;;;;;;8374353;28;20408;-72
2023/03/13 22:18:58;;;;;;;;;;;11.90;99.90;;;;;;8391623;28;19985;-72
2023/03/13 22:23:00;;;;;;;;;;;11.90;99.90;;;;;;8388468;28;19932;-72
2023/03/13 22:27:01;;;;;;;;;;;11.90;99.90;;;;;;8387393;28;19925;-72
2023/03/13 22:31:06;;;;;;;;;;;11.80;99.90;;;;;;8383436;28;22310;-72
2023/03/13 22:35:08;;;;;;;;;;;11.80;99.90;;;;;;8399875;28;19939;-72
2023/03/13 22:39:09;;;;;;;;;;;11.80;99.90;;;;;;8388587;28;19939;-72
2023/03/13 22:43:11;;;;;;;;;;;11.90;99.90;;;;;;8379758;28;19931;-72
2023/03/13 22:47:13;;;;;;;;;;;11.80;99.90;;;;;;8377372;28;19933;-72
2023/03/13 22:51:15;;;;;;;;;;;11.90;99.90;;;;;;8390937;28;20421;-73
2023/03/13 22:55:17;;;;;;;;;;;11.90;99.90;;;;;;8367668;28;19986;-73
2023/03/13 22:59:19;;;;;;;;;;;12.00;99.90;;;;;;8396247;28;19924;-72
2023/03/13 23:03:20;;;;;;;;;;;12.00;99.90;;;;;;8393825;28;19935;-72
2023/03/13 23:07:29;;;;;;;;;;;12.00;99.90;;;;;;8390810;28;19967;-72
2023/03/13 23:11:31;;;;;;;;;;;12.00;99.90;;;;;;8385991;28;19931;-72
2023/03/13 23:15:32;;;;;;;;;;;12.00;99.90;;;;;;8383531;28;20391;-72
2023/03/13 23:19:54;;;;;;;;;;;12.00;99.90;;;;;;8380839;28;19932;-72
2023/03/13 23:23:55;;;;;;;;;;;12.10;99.90;;;;;;8396304;28;19932;-72
2023/03/13 23:27:57;;;;;;;;;;;12.20;99.90;;;;;;8377319;28;19932;-72
2023/03/13 23:31:59;;;;;;;;;;;12.20;99.90;;;;;;8389503;28;20408;-72
2023/03/13 23:36:04;;;;;;;;;;;12.20;99.90;;;;;;8391838;28;19925;-72
2023/03/13 23:50:14;;;;;;;;;;;12.10;99.90;;;;;;8378315;28;20129;-72
2023/03/13 23:54:16;;;;;;;;;;;11.90;99.90;;;;;;8375956;28;19955;-72